createdAt,value
2022-07-25T00:08:01.755Z,60.06
2022-07-25T00:18:08.872Z,60.60
2022-07-25T00:28:12.518Z,60.96
2022-07-25T00:38:16.366Z,61.23
2022-07-25T00:48:19.957Z,61.72
2022-07-25T00:58:23.311Z,61.97
2022-07-25T01:08:32.253Z,62.36
2022-07-25T01:18:37.093Z,62.64
2022-07-25T01:28:41.005Z,62.78
2022-07-25T01:38:44.644Z,63.26
2022-07-25T01:48:48.250Z,63.93
2022-07-25T01:58:51.982Z,63.92
2022-07-25T02:08:55.777Z,64.29
2022-07-25T02:18:59.325Z,64.56
2022-07-25T02:29:03.100Z,65.06
2022-07-25T02:39:06.795Z,65.28
2022-07-25T02:49:10.496Z,65.24
2022-07-25T02:59:14.429Z,65.42
2022-07-25T03:09:18.660Z,65.39
2022-07-25T03:19:22.229Z,65.57
2022-07-25T03:29:26.509Z,65.68
2022-07-25T03:39:30.391Z,65.80
2022-07-25T03:49:35.571Z,65.71
2022-07-25T03:59:39.437Z,64.31
2022-07-25T04:09:43.037Z,62.20
2022-07-25T04:19:46.514Z,59.89
2022-07-25T04:29:50.415Z,57.86
2022-07-25T04:39:53.935Z,55.40
2022-07-25T04:49:57.518Z,54.25
2022-07-25T05:00:01.405Z,52.87
2022-07-25T05:10:04.066Z,51.56
2022-07-25T05:20:10.009Z,50.87
2022-07-25T05:30:13.351Z,49.98
2022-07-25T05:40:18.882Z,48.89
2022-07-25T05:50:25.398Z,49.44
2022-07-25T06:00:29.437Z,48.71
2022-07-25T06:10:32.980Z,47.09
2022-07-25T06:20:36.718Z,47.44
2022-07-25T06:55:40.976Z,42.99
2022-07-25T07:05:48.296Z,42.43
2022-07-25T07:15:54.919Z,41.27
2022-07-25T07:26:00.753Z,41.21
2022-07-25T07:36:05.568Z,40.34
2022-07-25T07:46:13.341Z,40.35
2022-07-25T07:56:19.144Z,39.08
2022-07-25T08:06:27.951Z,38.77
2022-07-25T08:16:35.453Z,37.17
2022-07-25T08:26:42.886Z,36.89
2022-07-25T08:36:50.449Z,36.69
2022-07-25T08:46:58.088Z,35.59
2022-07-25T08:57:04.395Z,35.85
2022-07-25T09:07:10.650Z,36.09
2022-07-25T09:17:22.302Z,35.67
2022-07-25T09:27:35.687Z,35.04
2022-07-25T09:37:42.970Z,35.46
2022-07-25T09:47:54.022Z,34.84
2022-07-25T09:58:01.338Z,34.80
2022-07-25T10:08:09.185Z,34.91
2022-07-25T10:18:18.657Z,34.62
2022-07-25T10:28:36.302Z,33.91
2022-07-25T10:38:45.525Z,34.17
2022-07-25T10:48:58.999Z,33.11
2022-07-25T10:59:06.804Z,32.63
2022-07-25T11:09:19.127Z,31.63
2022-07-25T11:19:30.482Z,31.55
2022-07-25T11:30:09.443Z,31.93
2022-07-25T11:40:16.702Z,31.43
2022-07-25T11:50:30.581Z,31.08
2022-07-25T12:00:35.837Z,30.50
2022-07-25T12:10:43.795Z,30.51
2022-07-25T12:20:51.235Z,31.12
2022-07-25T12:30:58.391Z,31.32
2022-07-25T12:41:06.015Z,31.01
2022-07-25T12:51:13.095Z,30.85
2022-07-25T13:01:20.371Z,30.62
2022-07-25T13:11:27.540Z,30.32
2022-07-25T13:21:34.598Z,30.02
2022-07-25T13:31:39.542Z,30.43
2022-07-25T13:41:47.289Z,30.09
2022-07-25T13:51:54.750Z,29.68
2022-07-25T14:02:02.028Z,29.63
2022-07-25T14:12:10.085Z,29.93
2022-07-25T14:22:17.540Z,29.58
2022-07-25T14:32:25.126Z,29.64
2022-07-25T14:42:33.224Z,29.66
2022-07-25T14:52:41.005Z,29.65
2022-07-25T15:02:47.131Z,29.50
2022-07-25T15:13:07.818Z,29.32
2022-07-25T15:23:21.355Z,29.18
2022-07-25T15:33:28.846Z,29.42
2022-07-25T15:43:35.882Z,29.12
2022-07-25T15:53:42.993Z,29.37
2022-07-25T16:03:50.441Z,29.61
2022-07-25T16:13:57.674Z,29.76
2022-07-25T16:24:04.872Z,29.93
2022-07-25T16:34:12.226Z,30.21
2022-07-25T16:44:19.726Z,30.32
2022-07-25T16:54:25.890Z,30.53
2022-07-25T17:04:34.347Z,30.63
2022-07-25T17:14:41.592Z,30.77
2022-07-25T17:24:48.956Z,30.98
2022-07-25T17:34:55.297Z,31.51
2022-07-25T17:45:01.442Z,31.37
2022-07-25T17:55:07.270Z,31.50
2022-07-25T18:05:15.206Z,31.90
2022-07-25T18:15:22.642Z,32.42
2022-07-25T18:25:29.741Z,32.71
2022-07-25T18:35:37.612Z,33.46
2022-07-25T18:45:46.872Z,34.30
2022-07-25T18:55:53.927Z,35.27
2022-07-25T19:06:03.433Z,36.57
2022-07-25T19:16:12.084Z,37.78
2022-07-25T19:26:19.858Z,38.85
2022-07-25T19:36:27.124Z,39.62
2022-07-25T19:46:33.284Z,39.28
2022-07-25T19:56:39.863Z,38.53
2022-07-25T20:06:47.367Z,37.99
2022-07-25T20:16:53.713Z,37.72
2022-07-25T20:26:59.905Z,37.86
2022-07-25T20:37:07.008Z,38.09
2022-07-25T20:47:13.894Z,38.49
2022-07-25T20:57:22.544Z,38.82
2022-07-25T21:07:29.625Z,39.42
2022-07-25T21:17:36.158Z,39.74
2022-07-25T21:27:42.288Z,40.18
2022-07-25T21:37:50.470Z,40.63
2022-07-25T21:47:57.706Z,41.15
2022-07-25T21:58:10.246Z,41.49
2022-07-25T22:08:17.404Z,41.94
2022-07-25T22:18:23.632Z,42.44
2022-07-25T22:28:30.810Z,42.86
2022-07-25T22:38:38.361Z,43.44
2022-07-25T22:48:45.616Z,43.94
2022-07-25T22:58:53.493Z,44.33
2022-07-25T23:09:00.888Z,44.85
2022-07-25T23:19:08.719Z,45.57
2022-07-25T23:29:16.106Z,45.96
2022-07-25T23:39:23.327Z,46.53
2022-07-25T23:49:30.519Z,47.27
2022-07-25T23:59:38.026Z,47.98
